Time;durP1;ratioP1;P1;durP2;ratioP2;P2;SDS_P1;SDS_P2;PMS_P1;PMS_P2;Temp;Humidity;BMP_temperature;BMP_pressure;BME280_temperature;BME280_humidity;BME280_pressure;Samples;Min_cycle;Max_cycle;Signal;HPM_P1;HPM_P2
2022/03/05 00:00:28;;;;;;;0.65;0.40;;;;;;;;;;5074285;28;20024;-74
2022/03/05 00:02:54;;;;;;;0.40;0.30;;;;;;;;;;5074116;28;20335;-74
2022/03/05 00:05:20;;;;;;;0.50;0.50;;;;;;;;;;5074079;28;20786;-74
2022/03/05 00:07:46;;;;;;;0.57;0.47;;;;;;;;;;5074509;28;20020;-74
2022/03/05 00:10:12;;;;;;;0.38;0.22;;;;;;;;;;5072929;28;20099;-74
2022/03/05 00:12:38;;;;;;;0.45;0.38;;;;;;;;;;5074381;28;20027;-74
2022/03/05 00:15:04;;;;;;;0.77;0.50;;;;;;;;;;5074103;28;20047;-74
2022/03/05 00:17:31;;;;;;;0.40;0.40;;;;;;;;;;5074219;28;20029;-74
2022/03/05 00:19:57;;;;;;;0.30;0.30;;;;;;;;;;5074494;28;20099;-74
2022/03/05 00:22:23;;;;;;;0.32;0.30;;;;;;;;;;5073730;28;20113;-74
2022/03/05 00:24:49;;;;;;;0.73;0.50;;;;;;;;;;5073471;28;20024;-74
2022/03/05 00:27:16;;;;;;;0.70;0.57;;;;;;;;;;5073318;28;20406;-74
2022/03/05 00:29:43;;;;;;;0.60;0.50;;;;;;;;;;5073789;28;20103;-74
2022/03/05 00:32:09;;;;;;;0.60;0.40;;;;;;;;;;5060655;28;20444;-74
2022/03/05 00:34:35;;;;;;;0.50;0.50;;;;;;;;;;5053643;28;20519;-74
2022/03/05 00:37:02;;;;;;;0.40;0.40;;;;;;;;;;5052449;28;20480;-74
2022/03/05 00:39:28;;;;;;;0.45;0.32;;;;;;;;;;5053511;28;20028;-74
2022/03/05 00:41:54;;;;;;;0.75;0.50;;;;;;;;;;5050178;28;20025;-74
2022/03/05 00:44:20;;;;;;;0.40;0.30;;;;;;;;;;5033544;28;20053;-74
2022/03/05 00:46:46;;;;;;;0.52;0.40;;;;;;;;;;5033516;28;20037;-74
2022/03/05 00:49:12;;;;;;;0.73;0.52;;;;;;;;;;5033239;28;20104;-74
2022/03/05 00:51:38;;;;;;;0.57;0.50;;;;;;;;;;5046832;28;20029;-74
2022/03/05 00:54:04;;;;;;;0.30;0.30;;;;;;;;;;5053422;28;20021;-75
2022/03/05 00:56:30;;;;;;;0.60;0.50;;;;;;;;;;5053375;28;20028;-74
2022/03/05 00:58:56;;;;;;;0.57;0.40;;;;;;;;;;5051909;28;20044;-74
2022/03/05 01:01:23;;;;;;;0.45;0.40;;;;;;;;;;5053583;28;20029;-74
2022/03/05 01:03:49;;;;;;;0.52;0.50;;;;;;;;;;5053160;28;20037;-74
2022/03/05 01:06:15;;;;;;;0.70;0.47;;;;;;;;;;5050575;28;20072;-74
2022/03/05 01:08:41;;;;;;;0.60;0.52;;;;;;;;;;5053073;28;20092;-74
2022/03/05 01:11:08;;;;;;;0.60;0.60;;;;;;;;;;5051763;28;20022;-74
2022/03/05 01:13:35;;;;;;;0.60;0.43;;;;;;;;;;5053079;28;20101;-74
2022/03/05 01:16:01;;;;;;;0.60;0.40;;;;;;;;;;5053170;28;20032;-75
2022/03/05 01:18:27;;;;;;;0.60;0.50;;;;;;;;;;5053238;28;20242;-74
2022/03/05 01:20:53;;;;;;;0.68;0.60;;;;;;;;;;5052788;28;20040;-74
2022/03/05 01:23:19;;;;;;;0.65;0.57;;;;;;;;;;5052859;28;20048;-74
2022/03/05 01:25:45;;;;;;;0.30;0.30;;;;;;;;;;5052927;28;20391;-74
2022/03/05 01:28:11;;;;;;;1.30;0.40;;;;;;;;;;5056190;28;20027;-74
2022/03/05 01:30:37;;;;;;;0.75;0.60;;;;;;;;;;5071391;28;20492;-74
2022/03/05 01:33:04;;;;;;;0.50;0.50;;;;;;;;;;5053314;28;20411;-74
2022/03/05 01:35:30;;;;;;;0.75;0.60;;;;;;;;;;5052708;28;20033;-74
2022/03/05 01:37:56;;;;;;;0.50;0.50;;;;;;;;;;5052444;28;20027;-74
2022/03/05 01:40:22;;;;;;;0.60;0.50;;;;;;;;;;5052511;28;20552;-74
2022/03/05 01:42:48;;;;;;;0.90;0.50;;;;;;;;;;5041487;28;20060;-74
2022/03/05 01:45:15;;;;;;;0.60;0.50;;;;;;;;;;5032497;28;20040;-74
2022/03/05 01:47:41;;;;;;;1.08;0.60;;;;;;;;;;5032467;28;20029;-74
2022/03/05 01:50:08;;;;;;;0.50;0.40;;;;;;;;;;5033309;28;20492;-74
2022/03/05 01:52:34;;;;;;;0.40;0.40;;;;;;;;;;5052522;28;20028;-74
2022/03/05 01:55:01;;;;;;;0.85;0.75;;;;;;;;;;5052265;28;20035;-74
2022/03/05 01:57:27;;;;;;;2.08;0.70;;;;;;;;;;5052446;28;20502;-74
2022/03/05 01:59:53;;;;;;;1.17;0.28;;;;;;;;;;5051812;28;20078;-74
2022/03/05 02:02:19;;;;;;;0.40;0.40;;;;;;;;;;5072627;28;20046;-74
2022/03/05 02:04:45;;;;;;;0.93;0.63;;;;;;;;;;5072033;28;20036;-74
2022/03/05 02:07:11;;;;;;;0.70;0.70;;;;;;;;;;5072162;28;20032;-74
2022/03/05 02:09:37;;;;;;;0.70;0.60;;;;;;;;;;5072326;28;20024;-74
2022/03/05 02:12:03;;;;;;;0.60;0.50;;;;;;;;;;5044435;28;20017;-74
2022/03/05 02:14:29;;;;;;;0.60;0.43;;;;;;;;;;5047446;28;20032;-74
2022/03/05 02:16:56;;;;;;;0.70;0.50;;;;;;;;;;5032230;28;20014;-74
2022/03/05 02:19:22;;;;;;;1.13;0.63;;;;;;;;;;5036236;28;20203;-74
2022/03/05 02:21:48;;;;;;;0.50;0.50;;;;;;;;;;5052145;28;20052;-74
2022/03/05 02:24:15;;;;;;;0.40;0.40;;;;;;;;;;5052209;28;20279;-74
2022/03/05 02:26:41;;;;;;;0.63;0.50;;;;;;;;;;5052021;28;20021;-74
2022/03/05 02:29:07;;;;;;;1.30;0.70;;;;;;;;;;5037661;28;20480;-74
2022/03/05 02:31:33;;;;;;;0.50;0.50;;;;;;;;;;5032589;28;20544;-74
2022/03/05 02:34:00;;;;;;;0.50;0.43;;;;;;;;;;5060085;28;20484;-74
2022/03/05 02:36:26;;;;;;;1.10;0.60;;;;;;;;;;5072009;28;20033;-74
2022/03/05 02:38:53;;;;;;;0.95;0.70;;;;;;;;;;5072081;28;20415;-74
2022/03/05 02:41:19;;;;;;;0.45;0.40;;;;;;;;;;5071811;28;20037;-74
2022/03/05 02:43:49;;;;;;;0.40;0.40;;;;;;;;;;5053118;28;20052;-74
2022/03/05 02:46:15;;;;;;;0.63;0.52;;;;;;;;;;5036865;28;20392;-74
2022/03/05 02:48:41;;;;;;;0.50;0.40;;;;;;;;;;5031590;28;20091;-74
2022/03/05 02:51:07;;;;;;;0.82;0.50;;;;;;;;;;5041148;28;20109;-74
2022/03/05 02:53:33;;;;;;;0.50;0.50;;;;;;;;;;5052061;28;20033;-74
2022/03/05 02:55:59;;;;;;;0.38;0.38;;;;;;;;;;5052090;28;20032;-74
2022/03/05 02:58:25;;;;;;;0.40;0.40;;;;;;;;;;5051431;28;20029;-74
2022/03/05 03:00:51;;;;;;;0.50;0.50;;;;;;;;;;5051468;28;20052;-74
2022/03/05 03:03:18;;;;;;;0.40;0.40;;;;;;;;;;5051543;28;20029;-74
2022/03/05 03:05:44;;;;;;;0.47;0.40;;;;;;;;;;5051650;28;20052;-74
2022/03/05 03:08:10;;;;;;;0.60;0.43;;;;;;;;;;5051366;28;20547;-74
2022/03/05 03:10:36;;;;;;;0.40;0.20;;;;;;;;;;5050128;28;20048;-74
2022/03/05 03:13:03;;;;;;;0.30;0.30;;;;;;;;;;5051613;28;20025;-74
2022/03/05 03:15:29;;;;;;;1.95;0.40;;;;;;;;;;5051809;28;20021;-74
2022/03/05 03:17:55;;;;;;;0.60;0.30;;;;;;;;;;5051464;28;20033;-74
2022/03/05 03:20:23;;;;;;;0.65;0.50;;;;;;;;;;5036716;28;20037;-74
2022/03/05 03:22:49;;;;;;;1.50;0.30;;;;;;;;;;5031403;28;20025;-74
2022/03/05 03:25:16;;;;;;;0.45;0.40;;;;;;;;;;5030346;28;20038;-74
2022/03/05 03:27:42;;;;;;;0.30;0.30;;;;;;;;;;5031481;28;20076;-74
2022/03/05 03:30:09;;;;;;;0.35;0.20;;;;;;;;;;5033648;28;20013;-74
2022/03/05 03:32:36;;;;;;;0.35;0.30;;;;;;;;;;5035096;28;20056;-74
2022/03/05 03:35:02;;;;;;;0.32;0.30;;;;;;;;;;5034999;28;20028;-74
2022/03/05 03:37:29;;;;;;;0.30;0.30;;;;;;;;;;5048682;28;20025;-74
2022/03/05 03:40:05;;;;;;;0.30;0.30;;;;;;;;;;5075010;28;20044;-74
2022/03/05 03:42:31;;;;;;;0.40;0.35;;;;;;;;;;5065933;28;20104;-74
2022/03/05 03:44:57;;;;;;;0.63;0.30;;;;;;;;;;5054908;28;20083;-74
2022/03/05 03:47:24;;;;;;;0.40;0.40;;;;;;;;;;5054359;28;20036;-74
2022/03/05 03:49:50;;;;;;;0.55;0.30;;;;;;;;;;5054574;28;20074;-74
2022/03/05 03:52:16;;;;;;;0.30;0.22;;;;;;;;;;5035486;28;20030;-74
2022/03/05 03:54:44;;;;;;;0.30;0.22;;;;;;;;;;5034592;28;20021;-74
2022/03/05 03:57:10;;;;;;;0.40;0.32;;;;;;;;;;5034938;28;20515;-74
2022/03/05 03:59:36;;;;;;;0.40;0.30;;;;;;;;;;5034496;28;20026;-74
2022/03/05 04:02:02;;;;;;;0.13;0.13;;;;;;;;;;5034360;28;20037;-74
2022/03/05 04:04:29;;;;;;;0.35;0.30;;;;;;;;;;5034306;28;20124;-74
2022/03/05 04:09:39;;;;;;;0.70;0.40;;;;;;;;;;5047023;28;20542;-74
2022/03/05 04:15:10;;;;;;;0.13;0.10;;;;;;;;;;5074698;28;20389;-74
2022/03/05 04:17:36;;;;;;;0.30;0.20;;;;;;;;;;5074032;28;20059;-74
2022/03/05 04:20:02;;;;;;;0.45;0.30;;;;;;;;;;5062158;28;20017;-74
2022/03/05 04:22:28;;;;;;;0.20;0.20;;;;;;;;;;5052506;28;20507;-74
2022/03/05 04:24:54;;;;;;;0.57;0.22;;;;;;;;;;5054043;28;20096;-74
2022/03/05 04:27:20;;;;;;;0.43;0.43;;;;;;;;;;5054006;28;20407;-74
2022/03/05 04:29:46;;;;;;;0.22;0.22;;;;;;;;;;5053866;28;20021;-74
2022/03/05 04:32:12;;;;;;;0.20;0.20;;;;;;;;;;5054015;28;20021;-74
2022/03/05 04:34:38;;;;;;;0.57;0.30;;;;;;;;;;5053691;28;20098;-74
2022/03/05 04:37:04;;;;;;;0.20;0.20;;;;;;;;;;5054065;28;20057;-74
2022/03/05 04:39:30;;;;;;;0.20;0.20;;;;;;;;;;5053872;28;20037;-74
2022/03/05 04:41:56;;;;;;;0.73;0.40;;;;;;;;;;5049624;28;20025;-74
2022/03/05 04:44:22;;;;;;;0.47;0.20;;;;;;;;;;5033706;28;20052;-74
2022/03/05 04:46:48;;;;;;;0.52;0.40;;;;;;;;;;5033871;28;20104;-74
2022/03/05 04:49:15;;;;;;;0.63;0.20;;;;;;;;;;5033229;28;20071;-74
2022/03/05 04:51:41;;;;;;;0.28;0.20;;;;;;;;;;5033253;28;20468;-74
2022/03/05 04:54:07;;;;;;;0.40;0.25;;;;;;;;;;5033379;28;20028;-74
2022/03/05 04:56:33;;;;;;;0.45;0.30;;;;;;;;;;5033667;28;20057;-74
2022/03/05 04:58:59;;;;;;;0.20;0.20;;;;;;;;;;5033145;28;20032;-74
2022/03/05 05:01:25;;;;;;;0.90;0.20;;;;;;;;;;5033504;28;20033;-74
2022/03/05 05:03:52;;;;;;;0.70;0.25;;;;;;;;;;5033222;28;20391;-74
2022/03/05 05:06:18;;;;;;;0.10;0.10;;;;;;;;;;5033138;28;20051;-74
2022/03/05 05:08:44;;;;;;;0.85;0.22;;;;;;;;;;5033598;28;20025;-74
2022/03/05 05:11:11;;;;;;;0.30;0.20;;;;;;;;;;5033107;28;20492;-74
2022/03/05 05:13:38;;;;;;;0.20;0.20;;;;;;;;;;5038051;28;20082;-74
2022/03/05 05:16:05;;;;;;;1.55;0.35;;;;;;;;;;5071516;28;20031;-74
2022/03/05 05:18:32;;;;;;;0.30;0.10;;;;;;;;;;5073469;28;20475;-74
2022/03/05 05:20:59;;;;;;;0.32;0.20;;;;;;;;;;5052973;28;20111;-74
2022/03/05 05:23:25;;;;;;;0.30;0.20;;;;;;;;;;5052532;28;20510;-74
2022/03/05 05:25:51;;;;;;;0.15;0.15;;;;;;;;;;5051379;28;20036;-74
2022/03/05 05:28:17;;;;;;;0.40;0.30;;;;;;;;;;5051688;28;20384;-74
2022/03/05 05:30:43;;;;;;;0.40;0.30;;;;;;;;;;5052892;28;20025;-75
2022/03/05 05:33:09;;;;;;;0.25;0.25;;;;;;;;;;5053134;28;20035;-75
2022/03/05 05:35:35;;;;;;;0.20;0.20;;;;;;;;;;5052846;28;20040;-75
2022/03/05 05:38:01;;;;;;;0.20;0.20;;;;;;;;;;5052553;28;20101;-75
2022/03/05 05:40:27;;;;;;;0.40;0.30;;;;;;;;;;5052231;28;20052;-75
2022/03/05 05:42:53;;;;;;;0.40;0.30;;;;;;;;;;5040688;28;20078;-75
2022/03/05 05:45:20;;;;;;;0.47;0.30;;;;;;;;;;5032191;28;20488;-75
2022/03/05 05:47:46;;;;;;;0.30;0.20;;;;;;;;;;5069856;28;20058;-75
2022/03/05 05:50:12;;;;;;;0.50;0.20;;;;;;;;;;5070816;28;20078;-75
2022/03/05 05:52:39;;;;;;;0.57;0.20;;;;;;;;;;5052150;28;20031;-75
2022/03/05 05:55:05;;;;;;;1.73;0.20;;;;;;;;;;5052306;28;20029;-75
2022/03/05 05:57:31;;;;;;;0.20;0.10;;;;;;;;;;5052420;28;20033;-73
2022/03/05 05:59:57;;;;;;;1.52;0.20;;;;;;;;;;5052042;28;20029;-73
2022/03/05 06:02:23;;;;;;;0.43;0.20;;;;;;;;;;5052439;28;20037;-73
2022/03/05 06:04:49;;;;;;;0.20;0.20;;;;;;;;;;5051910;28;20052;-73
2022/03/05 06:07:16;;;;;;;0.30;0.20;;;;;;;;;;5052460;28;20037;-73
2022/03/05 06:09:42;;;;;;;0.45;0.20;;;;;;;;;;5052313;28;20464;-73
2022/03/05 06:12:08;;;;;;;3.83;0.50;;;;;;;;;;5051919;28;20036;-73
2022/03/05 06:14:34;;;;;;;0.28;0.13;;;;;;;;;;5051710;28;20017;-73
2022/03/05 06:17:01;;;;;;;0.30;0.20;;;;;;;;;;5051754;28;20032;-73
2022/03/05 06:19:27;;;;;;;0.17;0.17;;;;;;;;;;5058749;28;20104;-73
2022/03/05 06:21:53;;;;;;;0.30;0.20;;;;;;;;;;5052022;28;20025;-73
2022/03/05 06:24:19;;;;;;;0.50;0.40;;;;;;;;;;5051981;28;20507;-73
2022/03/05 06:26:46;;;;;;;0.20;0.13;;;;;;;;;;5051863;28;20029;-73
2022/03/05 06:29:12;;;;;;;0.93;0.30;;;;;;;;;;5052061;28;20090;-73
2022/03/05 06:31:38;;;;;;;0.28;0.13;;;;;;;;;;5050406;28;20112;-73
2022/03/05 06:34:04;;;;;;;0.30;0.30;;;;;;;;;;5052050;28;20499;-73
2022/03/05 06:36:30;;;;;;;0.10;0.10;;;;;;;;;;5051741;28;20083;-73
2022/03/05 06:38:56;;;;;;;0.40;0.20;;;;;;;;;;5052117;28;20109;-73
2022/03/05 06:41:22;;;;;;;1.05;0.65;;;;;;;;;;5051732;28;20108;-73
2022/03/05 06:43:48;;;;;;;0.30;0.20;;;;;;;;;;5032655;28;20075;-73
2022/03/05 06:46:15;;;;;;;0.10;0.10;;;;;;;;;;5031635;28;20108;-73
2022/03/05 06:48:41;;;;;;;0.30;0.28;;;;;;;;;;5032005;28;20030;-73
2022/03/05 06:51:07;;;;;;;0.20;0.20;;;;;;;;;;5051112;28;20070;-73
2022/03/05 06:53:33;;;;;;;0.93;0.30;;;;;;;;;;5071939;28;20468;-73
2022/03/05 06:55:59;;;;;;;0.17;0.13;;;;;;;;;;5071539;28;20394;-73
2022/03/05 06:58:25;;;;;;;0.35;0.20;;;;;;;;;;5071943;28;20117;-73
2022/03/05 07:00:52;;;;;;;0.30;0.30;;;;;;;;;;5071542;28;20028;-73
2022/03/05 07:03:18;;;;;;;0.30;0.22;;;;;;;;;;5071781;28;20028;-73
2022/03/05 07:05:44;;;;;;;0.57;0.38;;;;;;;;;;5074172;28;20129;-73
2022/03/05 07:08:10;;;;;;;0.52;0.32;;;;;;;;;;5074180;28;20025;-73
2022/03/05 07:10:36;;;;;;;0.20;0.20;;;;;;;;;;5075276;28;20115;-73
2022/03/05 07:13:02;;;;;;;0.63;0.55;;;;;;;;;;5075543;28;20027;-73
2022/03/05 07:15:28;;;;;;;0.40;0.40;;;;;;;;;;5075339;28;20024;-73
2022/03/05 07:17:54;;;;;;;0.40;0.20;;;;;;;;;;5075163;28;20085;-73
2022/03/05 07:20:21;;;;;;;0.55;0.30;;;;;;;;;;5060617;28;20579;-73
2022/03/05 07:22:47;;;;;;;2.25;0.40;;;;;;;;;;5060035;28;20031;-75
2022/03/05 07:25:14;;;;;;;0.35;0.30;;;;;;;;;;5074789;28;20034;-75
2022/03/05 07:27:40;;;;;;;0.40;0.25;;;;;;;;;;5073706;28;20054;-75
2022/03/05 07:30:08;;;;;;;0.30;0.28;;;;;;;;;;5075127;28;20428;-75
2022/03/05 07:32:34;;;;;;;0.20;0.20;;;;;;;;;;5075097;28;20548;-75
2022/03/05 07:35:00;;;;;;;0.82;0.47;;;;;;;;;;5074610;28;20028;-75
2022/03/05 07:37:26;;;;;;;0.40;0.40;;;;;;;;;;5074835;28;20510;-75
2022/03/05 07:39:52;;;;;;;0.75;0.50;;;;;;;;;;5075110;28;20025;-75
2022/03/05 07:42:18;;;;;;;0.47;0.40;;;;;;;;;;5068421;28;20043;-75
2022/03/05 07:44:44;;;;;;;0.30;0.20;;;;;;;;;;5054395;28;20510;-75
2022/03/05 07:47:10;;;;;;;0.52;0.30;;;;;;;;;;5054830;28;20052;-75
2022/03/05 07:49:37;;;;;;;0.45;0.38;;;;;;;;;;5054524;28;20123;-75
2022/03/05 07:52:03;;;;;;;0.30;0.30;;;;;;;;;;5037981;28;20029;-75
2022/03/05 07:54:29;;;;;;;0.40;0.32;;;;;;;;;;5036484;28;20029;-75
2022/03/05 07:56:56;;;;;;;0.40;0.30;;;;;;;;;;5074265;28;20070;-75
2022/03/05 07:59:22;;;;;;;0.50;0.40;;;;;;;;;;5074577;28;20040;-75
2022/03/05 08:01:48;;;;;;;0.90;0.30;;;;;;;;;;5074272;28;20024;-75
2022/03/05 08:04:14;;;;;;;0.47;0.32;;;;;;;;;;5074448;28;20049;-75
2022/03/05 08:06:40;;;;;;;0.82;0.63;;;;;;;;;;5072706;28;20131;-75
2022/03/05 08:09:06;;;;;;;0.30;0.30;;;;;;;;;;5074152;28;20023;-75
2022/03/05 08:11:32;;;;;;;0.60;0.45;;;;;;;;;;5074325;28;20025;-75
2022/03/05 08:13:59;;;;;;;0.57;0.50;;;;;;;;;;5074001;28;20021;-73
2022/03/05 08:16:25;;;;;;;0.63;0.50;;;;;;;;;;5073294;28;20071;-73
2022/03/05 08:18:51;;;;;;;0.32;0.32;;;;;;;;;;5071002;28;20120;-73
2022/03/05 08:21:17;;;;;;;1.15;0.60;;;;;;;;;;5053882;28;20037;-73
2022/03/05 08:23:43;;;;;;;0.93;0.52;;;;;;;;;;5053815;28;20021;-73
2022/03/05 08:26:13;;;;;;;0.43;0.30;;;;;;;;;;5053184;28;20029;-73
2022/03/05 08:28:40;;;;;;;0.40;0.30;;;;;;;;;;5070916;28;20034;-73
2022/03/05 08:31:06;;;;;;;0.50;0.40;;;;;;;;;;5074147;28;20039;-73
2022/03/05 08:33:32;;;;;;;0.70;0.50;;;;;;;;;;5073591;28;20024;-73
2022/03/05 08:35:58;;;;;;;0.40;0.38;;;;;;;;;;5073550;28;20396;-73
2022/03/05 08:38:24;;;;;;;0.45;0.45;;;;;;;;;;5072182;28;20078;-73
2022/03/05 08:40:50;;;;;;;0.32;0.32;;;;;;;;;;5073655;28;20043;-73
2022/03/05 08:43:16;;;;;;;0.60;0.50;;;;;;;;;;5058678;28;20021;-73
2022/03/05 08:45:42;;;;;;;0.60;0.60;;;;;;;;;;5053502;28;20036;-73
2022/03/05 08:48:09;;;;;;;0.52;0.50;;;;;;;;;;5053578;28;20450;-73
2022/03/05 08:50:35;;;;;;;0.50;0.50;;;;;;;;;;5048902;28;20389;-73
2022/03/05 08:53:01;;;;;;;0.93;0.68;;;;;;;;;;5033546;28;20090;-73
2022/03/05 08:55:28;;;;;;;0.75;0.57;;;;;;;;;;5033554;28;20400;-74
2022/03/05 08:57:54;;;;;;;0.70;0.50;;;;;;;;;;5033059;28;20511;-73
2022/03/05 09:00:20;;;;;;;1.42;0.50;;;;;;;;;;5058772;28;20467;-73
2022/03/05 09:02:46;;;;;;;0.93;0.68;;;;;;;;;;5073026;28;20024;-73
2022/03/05 09:05:14;;;;;;;0.68;0.60;;;;;;;;;;5072844;28;20486;-73
2022/03/05 09:07:40;;;;;;;0.80;0.60;;;;;;;;;;5072810;28;20032;-73
2022/03/05 09:10:08;;;;;;;0.60;0.55;;;;;;;;;;5073070;28;20024;-73
2022/03/05 09:12:34;;;;;;;0.80;0.47;;;;;;;;;;5072920;28;20017;-73
2022/03/05 09:15:00;;;;;;;1.67;0.60;;;;;;;;;;5071398;28;20471;-73
2022/03/05 09:17:26;;;;;;;0.68;0.68;;;;;;;;;;5072418;28;20032;-73
2022/03/05 09:19:53;;;;;;;0.60;0.57;;;;;;;;;;5062180;28;20033;-73
2022/03/05 09:22:19;;;;;;;0.77;0.50;;;;;;;;;;5051463;28;20029;-73
2022/03/05 09:24:46;;;;;;;1.63;0.70;;;;;;;;;;5052824;28;20033;-73
2022/03/05 09:27:12;;;;;;;0.70;0.60;;;;;;;;;;5051620;28;20059;-73
2022/03/05 09:29:38;;;;;;;0.80;0.60;;;;;;;;;;5052566;28;20029;-73
2022/03/05 09:32:05;;;;;;;0.43;0.40;;;;;;;;;;5061239;28;20585;-73
2022/03/05 09:34:31;;;;;;;0.60;0.50;;;;;;;;;;5072303;28;20028;-73
2022/03/05 09:36:57;;;;;;;1.17;0.90;;;;;;;;;;5072354;28;20040;-73
2022/03/05 09:39:23;;;;;;;0.50;0.50;;;;;;;;;;5072570;28;20411;-73
2022/03/05 09:41:49;;;;;;;0.60;0.50;;;;;;;;;;5069514;28;20159;-73
2022/03/05 09:44:16;;;;;;;0.88;0.80;;;;;;;;;;5052055;28;20040;-73
2022/03/05 09:46:43;;;;;;;0.93;0.77;;;;;;;;;;5052025;28;20118;-74
2022/03/05 09:49:09;;;;;;;0.90;0.70;;;;;;;;;;5052300;28;20429;-74
2022/03/05 09:51:35;;;;;;;0.85;0.70;;;;;;;;;;5039270;28;20370;-74
2022/03/05 09:54:02;;;;;;;1.40;0.63;;;;;;;;;;5032054;28;20033;-74
2022/03/05 09:56:28;;;;;;;1.02;0.60;;;;;;;;;;5032255;28;20032;-74
2022/03/05 09:58:55;;;;;;;1.25;1.13;;;;;;;;;;5032388;28;20040;-74
2022/03/05 10:01:21;;;;;;;0.80;0.70;;;;;;;;;;5032087;28;20029;-74
2022/03/05 10:03:48;;;;;;;0.70;0.70;;;;;;;;;;5040918;28;20103;-74
2022/03/05 10:06:18;;;;;;;0.73;0.65;;;;;;;;;;5071662;28;20591;-74
2022/03/05 10:08:45;;;;;;;0.80;0.60;;;;;;;;;;5070733;28;20119;-74
2022/03/05 10:11:12;;;;;;;0.93;0.60;;;;;;;;;;5070537;28;20414;-74
2022/03/05 10:13:38;;;;;;;1.35;0.70;;;;;;;;;;5070477;28;20024;-74
2022/03/05 10:16:06;;;;;;;0.80;0.60;;;;;;;;;;5072040;28;20020;-74
2022/03/05 10:18:36;;;;;;;1.00;0.70;;;;;;;;;;5071442;28;20024;-74
2022/03/05 10:21:07;;;;;;;1.02;0.93;;;;;;;;;;5032077;28;20045;-75
2022/03/05 10:23:47;;;;;;;1.95;0.60;;;;;;;;;;5031905;28;20033;-75
2022/03/05 10:26:14;;;;;;;1.52;0.82;;;;;;;;;;5031664;28;20025;-75
2022/03/05 10:28:41;;;;;;;1.23;0.77;;;;;;;;;;5031649;28;20496;-75
2022/03/05 10:31:13;;;;;;;0.88;0.70;;;;;;;;;;5031791;28;20108;-74
2022/03/05 10:33:40;;;;;;;1.25;0.90;;;;;;;;;;5031719;28;20024;-75
2022/03/05 10:36:17;;;;;;;1.95;0.82;;;;;;;;;;5041657;28;20036;-75
2022/03/05 10:38:44;;;;;;;1.98;0.70;;;;;;;;;;5071782;28;20024;-75
2022/03/05 10:41:10;;;;;;;1.67;0.93;;;;;;;;;;5075751;28;20047;-75
2022/03/05 10:43:36;;;;;;;1.60;0.80;;;;;;;;;;5057967;28;20029;-75
2022/03/05 10:46:03;;;;;;;1.55;0.90;;;;;;;;;;5053761;28;20407;-75
2022/03/05 10:48:31;;;;;;;0.85;0.70;;;;;;;;;;5055152;28;20024;-75
2022/03/05 10:50:58;;;;;;;1.02;0.90;;;;;;;;;;5047649;28;20045;-75
2022/03/05 10:53:45;;;;;;;0.80;0.80;;;;;;;;;;5035507;28;20032;-75
2022/03/05 10:56:21;;;;;;;1.20;0.80;;;;;;;;;;5035570;28;20450;-75
2022/03/05 10:58:56;;;;;;;1.55;0.93;;;;;;;;;;5035224;28;20037;-75
2022/03/05 11:01:23;;;;;;;1.30;1.10;;;;;;;;;;5035945;28;20388;-74
2022/03/05 11:03:52;;;;;;;1.33;0.90;;;;;;;;;;5035159;28;20025;-74
2022/03/05 11:06:19;;;;;;;2.13;1.20;;;;;;;;;;5035111;28;20069;-75
2022/03/05 11:08:45;;;;;;;1.25;1.00;;;;;;;;;;5051672;28;20025;-75
2022/03/05 11:11:12;;;;;;;2.35;1.33;;;;;;;;;;5075037;28;20029;-75
2022/03/05 11:13:39;;;;;;;1.42;0.95;;;;;;;;;;5075162;28;20023;-74
2022/03/05 11:16:05;;;;;;;1.48;1.10;;;;;;;;;;5074888;28;20025;-75
2022/03/05 11:18:34;;;;;;;1.55;1.13;;;;;;;;;;5074337;28;20033;-75
2022/03/05 11:21:04;;;;;;;1.30;1.00;;;;;;;;;;5055215;28;20479;-75
2022/03/05 11:23:33;;;;;;;1.48;1.15;;;;;;;;;;5054895;28;20117;-75
2022/03/05 11:26:00;;;;;;;1.20;1.02;;;;;;;;;;5054618;28;20064;-75
2022/03/05 11:28:34;;;;;;;1.88;1.02;;;;;;;;;;5054611;28;20025;-74
2022/03/05 11:31:02;;;;;;;1.60;1.08;;;;;;;;;;5053627;28;20029;-75
2022/03/05 11:33:38;;;;;;;2.92;1.00;;;;;;;;;;5055031;28;20507;-74
2022/03/05 11:36:07;;;;;;;1.20;1.10;;;;;;;;;;5054357;28;20029;-74
2022/03/05 11:38:39;;;;;;;1.88;1.00;;;;;;;;;;5054365;28;20028;-75
2022/03/05 11:41:20;;;;;;;1.38;1.20;;;;;;;;;;5064283;28;20056;-75
2022/03/05 11:43:47;;;;;;;1.23;1.13;;;;;;;;;;5054482;28;20555;-75
2022/03/05 11:46:23;;;;;;;1.65;1.20;;;;;;;;;;5054554;28;20025;-75
2022/03/05 11:49:03;;;;;;;1.75;1.25;;;;;;;;;;5054594;28;20021;-75
2022/03/05 11:51:30;;;;;;;1.58;1.20;;;;;;;;;;5041483;28;20108;-75
2022/03/05 11:54:06;;;;;;;1.80;1.30;;;;;;;;;;5034897;28;20523;-75
2022/03/05 11:56:32;;;;;;;1.50;1.10;;;;;;;;;;5033279;28;20511;-75
2022/03/05 11:58:58;;;;;;;1.60;1.30;;;;;;;;;;5040443;28;20028;-75
2022/03/05 12:01:33;;;;;;;1.48;1.13;;;;;;;;;;5052825;28;20089;-75
2022/03/05 12:04:04;;;;;;;1.10;1.00;;;;;;;;;;5053845;28;20191;-75
2022/03/05 12:06:42;;;;;;;1.38;1.13;;;;;;;;;;5054054;28;20488;-75
2022/03/05 12:09:28;;;;;;;2.35;1.35;;;;;;;;;;5052585;28;20437;-75
2022/03/05 12:11:57;;;;;;;1.30;1.20;;;;;;;;;;5053988;28;20028;-75
2022/03/05 12:14:23;;;;;;;1.65;1.08;;;;;;;;;;5072278;28;20020;-74
2022/03/05 12:16:49;;;;;;;1.40;1.20;;;;;;;;;;5074173;28;20028;-75
2022/03/05 12:19:15;;;;;;;1.80;1.42;;;;;;;;;;5068633;28;20025;-75
2022/03/05 12:21:41;;;;;;;1.65;1.27;;;;;;;;;;5052307;28;20036;-75
2022/03/05 12:24:09;;;;;;;1.58;1.35;;;;;;;;;;5053708;28;20372;-75
2022/03/05 12:26:37;;;;;;;2.28;1.13;;;;;;;;;;5052327;28;20056;-75
2022/03/05 12:29:04;;;;;;;1.98;1.33;;;;;;;;;;5052230;28;20021;-75
2022/03/05 12:31:30;;;;;;;1.38;1.27;;;;;;;;;;5053810;28;20021;-75
2022/03/05 12:33:56;;;;;;;1.70;1.10;;;;;;;;;;5053971;28;20456;-75
2022/03/05 12:36:22;;;;;;;3.90;1.20;;;;;;;;;;5053641;28;20397;-75
2022/03/05 12:38:59;;;;;;;3.30;1.58;;;;;;;;;;5053956;28;20021;-75
2022/03/05 12:41:26;;;;;;;1.73;1.38;;;;;;;;;;5051811;28;20447;-74
2022/03/05 12:43:52;;;;;;;1.67;1.27;;;;;;;;;;5033872;28;20033;-75
2022/03/05 12:46:18;;;;;;;1.50;1.20;;;;;;;;;;5065659;28;20438;-75
2022/03/05 12:48:44;;;;;;;1.80;1.40;;;;;;;;;;5073327;28;20483;-75
2022/03/05 12:51:12;;;;;;;2.05;1.23;;;;;;;;;;5062005;28;20571;-74
2022/03/05 12:53:39;;;;;;;2.50;1.23;;;;;;;;;;5052331;28;20021;-75
2022/03/05 12:56:06;;;;;;;1.55;1.20;;;;;;;;;;5053608;28;20112;-74
2022/03/05 12:58:33;;;;;;;1.52;1.20;;;;;;;;;;5053493;28;20461;-75
2022/03/05 13:01:00;;;;;;;1.90;1.35;;;;;;;;;;5052879;28;20036;-75
2022/03/05 13:03:28;;;;;;;1.23;1.13;;;;;;;;;;5053453;28;20423;-75
2022/03/05 13:05:54;;;;;;;1.60;1.13;;;;;;;;;;5052798;28;20056;-75
2022/03/05 13:08:20;;;;;;;1.13;0.98;;;;;;;;;;5053558;28;20476;-75
2022/03/05 13:10:47;;;;;;;1.40;1.30;;;;;;;;;;5052766;28;20025;-75
2022/03/05 13:13:13;;;;;;;1.10;1.00;;;;;;;;;;5051800;28;20450;-74
2022/03/05 13:15:40;;;;;;;1.30;1.20;;;;;;;;;;5053169;28;20468;-75
2022/03/05 13:18:07;;;;;;;1.48;1.23;;;;;;;;;;5065723;28;20429;-75
2022/03/05 13:20:34;;;;;;;1.70;1.30;;;;;;;;;;5056305;28;20025;-75
2022/03/05 13:23:00;;;;;;;1.70;1.60;;;;;;;;;;5053220;28;20029;-75
2022/03/05 13:25:29;;;;;;;1.58;1.13;;;;;;;;;;5053160;28;20032;-75
2022/03/05 13:27:56;;;;;;;1.63;1.15;;;;;;;;;;5052876;28;20104;-75
2022/03/05 13:30:26;;;;;;;2.45;1.42;;;;;;;;;;5052731;28;20098;-75
2022/03/05 13:32:53;;;;;;;1.45;1.27;;;;;;;;;;5053273;28;20024;-75
2022/03/05 13:35:19;;;;;;;1.33;1.20;;;;;;;;;;5052681;28;20403;-75
2022/03/05 13:37:46;;;;;;;3.42;1.58;;;;;;;;;;5052467;28;20028;-75
2022/03/05 13:40:13;;;;;;;1.40;1.30;;;;;;;;;;5052830;28;20531;-75
2022/03/05 13:42:39;;;;;;;1.77;1.08;;;;;;;;;;5042010;28;20032;-75
2022/03/05 13:45:10;;;;;;;1.95;1.38;;;;;;;;;;5032626;28;20033;-75
2022/03/05 13:47:45;;;;;;;2.35;1.40;;;;;;;;;;5032639;28;20507;-75
2022/03/05 13:50:11;;;;;;;1.88;1.40;;;;;;;;;;5053736;28;20039;-75
2022/03/05 13:52:38;;;;;;;1.73;1.50;;;;;;;;;;5052294;28;20502;-74
2022/03/05 13:55:13;;;;;;;1.63;1.20;;;;;;;;;;5052349;28;20021;-75
2022/03/05 13:57:44;;;;;;;1.50;1.15;;;;;;;;;;5052196;28;20032;-75
2022/03/05 14:00:17;;;;;;;1.88;1.35;;;;;;;;;;5052056;28;20032;-75
2022/03/05 14:02:44;;;;;;;1.65;1.30;;;;;;;;;;5051864;28;20032;-75
2022/03/05 14:05:14;;;;;;;1.58;1.45;;;;;;;;;;5050669;28;20106;-75
2022/03/05 14:07:47;;;;;;;1.65;1.50;;;;;;;;;;5051905;28;20069;-75
2022/03/05 14:10:14;;;;;;;1.38;1.10;;;;;;;;;;5052208;28;20108;-75
2022/03/05 14:12:44;;;;;;;1.80;1.42;;;;;;;;;;5051477;28;20430;-75
2022/03/05 14:15:10;;;;;;;1.63;1.40;;;;;;;;;;5051925;28;20095;-75
2022/03/05 14:17:38;;;;;;;1.73;1.63;;;;;;;;;;5050495;28;20055;-75
2022/03/05 14:20:18;;;;;;;2.28;1.45;;;;;;;;;;5039910;28;20112;-75
2022/03/05 14:22:52;;;;;;;2.00;1.33;;;;;;;;;;5060428;28;20103;-75
2022/03/05 14:25:20;;;;;;;1.80;1.30;;;;;;;;;;5071962;28;20025;-75
2022/03/05 14:27:46;;;;;;;2.10;1.10;;;;;;;;;;5071852;28;20491;-75
2022/03/05 14:30:12;;;;;;;1.20;1.02;;;;;;;;;;5072025;28;20044;-75
2022/03/05 14:32:39;;;;;;;2.00;1.70;;;;;;;;;;5071707;28;20479;-75
2022/03/05 14:35:05;;;;;;;1.15;1.05;;;;;;;;;;5071997;28;20017;-75
2022/03/05 14:37:32;;;;;;;2.13;1.25;;;;;;;;;;5071661;28;20081;-75
2022/03/05 14:39:58;;;;;;;1.23;1.13;;;;;;;;;;5070718;28;20027;-75
2022/03/05 14:42:24;;;;;;;2.75;1.75;;;;;;;;;;5063929;28;20025;-75
2022/03/05 14:44:50;;;;;;;1.08;0.93;;;;;;;;;;5051770;28;20484;-76
2022/03/05 14:47:17;;;;;;;1.35;1.05;;;;;;;;;;5051872;28;20083;-76